createdAt,value
2023-05-10T00:01:26.076Z,55.60
2023-05-10T00:04:32.235Z,55.66
2023-05-10T00:07:41.676Z,55.84
2023-05-10T00:10:47.683Z,56.26
2023-05-10T00:13:54.570Z,56.07
2023-05-10T00:17:00.744Z,56.27
2023-05-10T00:20:08.897Z,56.08
2023-05-10T00:23:19.451Z,56.48
2023-05-10T00:26:26.289Z,56.98
2023-05-10T00:29:35.094Z,56.86
2023-05-10T00:32:42.004Z,57.07
2023-05-10T00:35:47.833Z,57.39
2023-05-10T00:38:58.220Z,57.65
2023-05-10T00:42:05.684Z,57.53
2023-05-10T00:45:13.901Z,58.01
2023-05-10T00:48:20.153Z,58.21
2023-05-10T00:51:27.432Z,58.26
2023-05-10T00:54:36.221Z,58.66
2023-05-10T00:57:43.854Z,58.70
2023-05-10T01:00:51.740Z,59.07
2023-05-10T01:04:00.119Z,59.12
2023-05-10T01:07:06.329Z,59.46
2023-05-10T01:10:16.504Z,59.10
2023-05-10T01:13:38.621Z,59.54
2023-05-10T01:16:49.701Z,59.55
2023-05-10T01:19:58.952Z,59.64
2023-05-10T01:23:40.041Z,59.61
2023-05-10T01:27:18.916Z,59.75
2023-05-10T01:31:17.054Z,59.68
2023-05-10T01:34:38.810Z,60.30
2023-05-10T01:37:54.482Z,60.09
2023-05-10T01:41:17.351Z,60.18
2023-05-10T01:44:38.700Z,60.29
2023-05-10T01:47:54.439Z,60.67
2023-05-10T01:51:03.878Z,60.59
2023-05-10T01:54:14.916Z,60.93
2023-05-10T01:57:27.998Z,61.25
2023-05-10T02:00:44.020Z,61.43
2023-05-10T02:03:54.111Z,61.19
2023-05-10T02:07:04.166Z,61.30
2023-05-10T02:10:14.495Z,61.52
2023-05-10T02:13:26.074Z,61.71
2023-05-10T02:16:34.803Z,61.52
2023-05-10T02:19:47.230Z,61.97
2023-05-10T02:23:02.111Z,61.55
2023-05-10T02:26:13.270Z,61.93
2023-05-10T02:29:24.544Z,61.83
2023-05-10T02:32:37.186Z,61.74
2023-05-10T02:35:52.508Z,61.61
2023-05-10T02:39:10.753Z,61.75
2023-05-10T02:42:23.683Z,61.95
2023-05-10T02:45:36.894Z,62.06
2023-05-10T02:48:42.912Z,62.24
2023-05-10T02:51:59.574Z,62.20
2023-05-10T02:55:21.960Z,62.67
2023-05-10T02:58:28.905Z,62.31
2023-05-10T03:01:41.181Z,62.41
2023-05-10T03:04:48.035Z,62.49
2023-05-10T03:07:57.033Z,62.57
2023-05-10T03:11:33.026Z,62.57
2023-05-10T03:15:00.996Z,62.42
2023-05-10T03:18:48.354Z,62.49
2023-05-10T03:22:02.989Z,62.30
2023-05-10T03:25:22.691Z,62.54
2023-05-10T03:28:39.552Z,62.72
2023-05-10T03:31:47.435Z,62.13
2023-05-10T03:34:56.715Z,62.32
2023-05-10T03:38:19.067Z,62.62
2023-05-10T03:41:26.649Z,62.78
2023-05-10T03:44:37.271Z,62.70
2023-05-10T03:47:44.345Z,61.91
2023-05-10T03:50:51.318Z,62.17
2023-05-10T03:53:57.273Z,61.98
2023-05-10T03:57:11.158Z,61.88
2023-05-10T04:00:21.091Z,62.42
2023-05-10T04:03:38.025Z,62.12
2023-05-10T04:06:44.998Z,61.29
2023-05-10T04:09:51.807Z,60.70
2023-05-10T04:12:58.083Z,58.64
2023-05-10T04:16:08.578Z,57.55
2023-05-10T04:19:14.534Z,56.37
2023-05-10T04:22:21.425Z,54.79
2023-05-10T04:25:27.292Z,53.31
2023-05-10T04:28:34.206Z,52.58
2023-05-10T04:31:42.711Z,51.22
2023-05-10T04:34:52.181Z,50.79
2023-05-10T04:37:58.289Z,50.83
2023-05-10T04:41:13.867Z,49.71
2023-05-10T04:44:25.513Z,49.84
2023-05-10T04:47:35.124Z,49.71
2023-05-10T04:50:41.625Z,49.26
2023-05-10T04:54:01.689Z,49.38
2023-05-10T04:57:11.891Z,49.63
2023-05-10T05:00:22.780Z,49.18
2023-05-10T05:03:31.381Z,48.60
2023-05-10T05:06:38.225Z,48.20
2023-05-10T05:09:51.176Z,48.31
2023-05-10T05:12:59.652Z,48.30
2023-05-10T05:16:06.552Z,47.35
2023-05-10T05:19:16.726Z,47.14
2023-05-10T05:22:28.631Z,47.17
2023-05-10T05:25:35.620Z,45.06
2023-05-10T05:28:42.128Z,44.67
2023-05-10T05:31:48.972Z,43.09
2023-05-10T05:34:57.686Z,42.62
2023-05-10T05:38:04.638Z,42.88
2023-05-10T05:41:10.694Z,42.08
2023-05-10T05:44:17.394Z,42.17
2023-05-10T05:47:23.516Z,41.78
2023-05-10T05:50:33.045Z,40.96
2023-05-10T05:53:39.045Z,40.92
2023-05-10T05:56:45.983Z,40.32
2023-05-10T05:59:51.896Z,39.55
2023-05-10T06:02:59.773Z,38.32
2023-05-10T06:06:10.351Z,38.13
2023-05-10T06:09:20.090Z,38.58
2023-05-10T06:12:28.029Z,39.67
2023-05-10T06:15:34.759Z,38.39
2023-05-10T06:18:42.582Z,37.61
2023-05-10T06:21:53.828Z,37.08
2023-05-10T06:25:00.005Z,37.82
2023-05-10T06:28:07.337Z,35.59
2023-05-10T06:31:13.746Z,35.08
2023-05-10T06:34:20.597Z,33.31
2023-05-10T06:37:29.124Z,33.62
2023-05-10T06:40:40.226Z,36.61
2023-05-10T06:43:46.110Z,35.45
2023-05-10T06:46:53.907Z,33.53
2023-05-10T06:49:59.872Z,33.59
2023-05-10T06:53:09.458Z,33.83
2023-05-10T06:56:15.545Z,35.26
2023-05-10T06:59:22.956Z,32.94
2023-05-10T07:02:29.210Z,32.41
2023-05-10T07:05:36.383Z,32.39
2023-05-10T07:08:44.984Z,32.32
2023-05-10T07:11:52.058Z,34.06
2023-05-10T07:14:57.908Z,32.32
2023-05-10T07:18:05.831Z,31.21
2023-05-10T07:21:12.043Z,30.22
2023-05-10T07:24:21.531Z,29.97
2023-05-10T07:27:27.508Z,30.36
2023-05-10T07:30:34.461Z,29.20
2023-05-10T07:33:40.330Z,29.43
2023-05-10T07:36:47.140Z,29.01
2023-05-10T07:39:59.001Z,29.96
2023-05-10T07:43:05.783Z,30.62
2023-05-10T07:46:12.327Z,30.06
2023-05-10T07:49:19.249Z,30.10
2023-05-10T07:52:26.558Z,29.67
2023-05-10T07:55:36.909Z,30.25
2023-05-10T07:58:42.971Z,30.87
2023-05-10T08:01:49.817Z,30.45
2023-05-10T08:04:57.294Z,30.60
2023-05-10T08:08:04.132Z,30.38
2023-05-10T08:11:18.860Z,29.92
2023-05-10T08:14:29.045Z,29.93
2023-05-10T08:17:35.017Z,27.26
2023-05-10T08:20:43.425Z,27.95
2023-05-10T08:23:55.275Z,28.55
2023-05-10T08:27:04.740Z,28.07
2023-05-10T08:30:14.340Z,26.69
2023-05-10T08:33:23.414Z,25.46
2023-05-10T08:36:29.689Z,27.42
2023-05-10T08:39:39.190Z,26.13
2023-05-10T08:42:59.680Z,27.11
2023-05-10T08:46:23.439Z,27.14
2023-05-10T08:49:36.101Z,27.23
2023-05-10T08:52:45.427Z,26.56
2023-05-10T08:55:54.587Z,27.20
2023-05-10T08:59:04.332Z,27.07
2023-05-10T09:02:15.207Z,26.18
2023-05-10T09:05:23.789Z,26.14
2023-05-10T09:08:32.101Z,26.12
2023-05-10T09:11:39.150Z,25.94
2023-05-10T09:14:50.537Z,25.24
2023-05-10T09:18:00.614Z,27.40
2023-05-10T09:21:24.531Z,26.30
2023-05-10T09:24:31.316Z,26.27
2023-05-10T09:27:37.583Z,26.24
2023-05-10T09:30:47.278Z,26.00
2023-05-10T09:33:54.640Z,26.73
2023-05-10T09:37:11.902Z,27.78
2023-05-10T09:40:20.826Z,26.31
2023-05-10T09:43:28.610Z,24.63
2023-05-10T09:46:40.318Z,26.15
2023-05-10T09:49:47.190Z,25.91
2023-05-10T09:52:56.398Z,26.43
2023-05-10T09:56:05.880Z,25.05
2023-05-10T09:59:14.978Z,25.28
2023-05-10T10:02:24.456Z,25.56
2023-05-10T10:05:34.957Z,24.74
2023-05-10T10:08:42.381Z,24.94
2023-05-10T10:11:48.403Z,25.02
2023-05-10T10:15:07.409Z,24.19
2023-05-10T10:18:20.316Z,25.63
2023-05-10T10:21:27.719Z,25.80
2023-05-10T10:24:33.732Z,25.87
2023-05-10T10:28:05.006Z,26.28
2023-05-10T10:31:30.788Z,25.03
2023-05-10T10:34:42.483Z,24.92
2023-05-10T10:37:50.342Z,24.97
2023-05-10T10:41:12.113Z,25.63
2023-05-10T10:44:43.147Z,27.90
2023-05-10T10:47:51.099Z,28.43
2023-05-10T10:51:04.357Z,28.02
2023-05-10T10:54:14.821Z,28.74
2023-05-10T10:57:31.476Z,28.47
2023-05-10T11:00:42.259Z,27.60
2023-05-10T11:04:24.211Z,28.38
2023-05-10T11:07:33.701Z,28.38
2023-05-10T11:10:40.017Z,29.63
2023-05-10T11:13:51.362Z,28.36
2023-05-10T11:17:01.155Z,29.19
2023-05-10T11:20:29.947Z,30.35
2023-05-10T11:23:57.353Z,30.36
2023-05-10T11:27:11.351Z,29.28
2023-05-10T11:30:19.323Z,28.79
2023-05-10T11:33:26.428Z,27.86
2023-05-10T11:36:37.311Z,27.20
2023-05-10T11:39:52.686Z,27.29
2023-05-10T11:43:00.771Z,26.72
2023-05-10T11:46:17.273Z,27.62
2023-05-10T11:49:24.872Z,28.32
2023-05-10T11:52:31.695Z,28.05
2023-05-10T11:55:40.919Z,28.44
2023-05-10T11:58:48.410Z,26.59
2023-05-10T12:02:07.246Z,27.66
2023-05-10T12:05:15.600Z,28.26
2023-05-10T12:08:28.256Z,28.14
2023-05-10T12:11:45.067Z,28.85
2023-05-10T12:14:56.447Z,28.46
2023-05-10T12:18:04.233Z,25.61
2023-05-10T12:21:10.441Z,26.91
2023-05-10T12:24:19.178Z,27.78
2023-05-10T12:27:27.752Z,28.39
2023-05-10T12:30:37.744Z,28.46
2023-05-10T12:33:47.649Z,26.34
2023-05-10T12:36:56.033Z,27.59
2023-05-10T12:40:08.438Z,27.59
2023-05-10T12:43:28.517Z,26.56
2023-05-10T12:46:34.551Z,27.34
2023-05-10T12:49:41.442Z,27.94
2023-05-10T12:52:50.837Z,28.49
2023-05-10T12:55:57.859Z,28.35
2023-05-10T12:59:06.415Z,29.32
2023-05-10T13:02:14.466Z,29.40
2023-05-10T13:05:20.844Z,28.79
2023-05-10T13:08:34.824Z,29.02
2023-05-10T13:11:42.104Z,28.37
2023-05-10T13:14:52.038Z,28.92
2023-05-10T13:18:00.189Z,28.84
2023-05-10T13:21:08.847Z,28.90
2023-05-10T13:24:16.483Z,30.00
2023-05-10T13:27:23.971Z,29.68
2023-05-10T13:30:33.198Z,30.64
2023-05-10T13:33:40.165Z,31.17
2023-05-10T13:36:47.014Z,30.26
2023-05-10T13:39:54.178Z,30.22
2023-05-10T13:43:08.476Z,30.27
2023-05-10T13:46:28.715Z,29.75
2023-05-10T13:49:36.295Z,28.79
2023-05-10T13:52:43.393Z,28.96
2023-05-10T13:55:50.186Z,29.51
2023-05-10T13:58:57.346Z,28.93
2023-05-10T14:02:07.976Z,30.19
2023-05-10T14:05:17.129Z,29.91
2023-05-10T14:08:25.274Z,30.52
2023-05-10T14:11:32.339Z,30.08
2023-05-10T14:14:38.591Z,30.24
2023-05-10T14:17:54.625Z,30.80
2023-05-10T14:21:03.304Z,30.37
2023-05-10T14:24:10.998Z,30.38
2023-05-10T14:27:20.763Z,30.32
2023-05-10T14:30:31.877Z,29.73
2023-05-10T14:33:41.340Z,30.20
2023-05-10T14:36:49.800Z,30.62
2023-05-10T14:39:56.521Z,30.58
2023-05-10T14:43:03.921Z,29.69
2023-05-10T14:46:10.301Z,30.05
2023-05-10T14:49:20.051Z,31.12
2023-05-10T14:52:27.321Z,32.00
2023-05-10T14:55:36.048Z,30.62
2023-05-10T14:58:42.516Z,30.81
2023-05-10T15:01:50.003Z,31.13
2023-05-10T15:05:00.596Z,30.85
2023-05-10T15:08:08.646Z,31.16
2023-05-10T15:11:16.814Z,30.81
2023-05-10T15:14:24.111Z,30.96
2023-05-10T15:17:30.363Z,31.60
2023-05-10T15:20:39.958Z,32.05
2023-05-10T15:23:48.649Z,31.41
2023-05-10T15:26:55.883Z,31.24
2023-05-10T15:30:08.248Z,31.21
2023-05-10T15:33:16.158Z,31.08
2023-05-10T15:36:24.936Z,31.52
2023-05-10T15:39:31.979Z,32.22
2023-05-10T15:42:42.414Z,31.95
2023-05-10T15:45:49.439Z,31.37
2023-05-10T15:48:58.463Z,30.80
2023-05-10T15:52:09.022Z,31.35
2023-05-10T15:55:17.559Z,31.08
2023-05-10T15:58:25.802Z,30.68
2023-05-10T16:01:32.825Z,32.19
2023-05-10T16:04:41.025Z,32.25
2023-05-10T16:07:49.881Z,32.66
2023-05-10T16:10:58.570Z,32.34
2023-05-10T16:14:08.521Z,32.85
2023-05-10T16:17:15.929Z,32.88
2023-05-10T16:20:24.465Z,32.93
2023-05-10T16:23:34.444Z,33.11
2023-05-10T16:26:41.354Z,33.18
2023-05-10T16:29:54.783Z,33.09
2023-05-10T16:33:01.345Z,33.33
2023-05-10T16:36:11.223Z,33.44
2023-05-10T16:39:20.190Z,33.06
2023-05-10T16:42:30.883Z,32.58
2023-05-10T16:45:44.350Z,32.88
2023-05-10T16:49:01.170Z,32.37
2023-05-10T16:52:07.605Z,32.08
2023-05-10T16:55:19.167Z,32.02
2023-05-10T16:58:26.332Z,32.50
2023-05-10T17:01:37.069Z,32.58
2023-05-10T17:04:43.797Z,32.69
2023-05-10T17:07:51.021Z,32.92
2023-05-10T17:11:04.430Z,32.75
2023-05-10T17:14:11.720Z,33.36
2023-05-10T17:17:18.673Z,33.42
2023-05-10T17:20:27.118Z,33.17
2023-05-10T17:23:33.423Z,32.78
2023-05-10T17:26:43.219Z,33.47
2023-05-10T17:29:49.582Z,33.64
2023-05-10T17:32:57.264Z,33.53
2023-05-10T17:36:05.729Z,34.03
2023-05-10T17:39:13.211Z,34.26
2023-05-10T17:42:22.303Z,34.57
2023-05-10T17:45:35.639Z,34.88
2023-05-10T17:48:45.281Z,35.14
2023-05-10T17:51:55.550Z,35.33
2023-05-10T17:55:09.682Z,35.27
2023-05-10T17:58:19.386Z,35.42
2023-05-10T18:01:26.601Z,35.60
2023-05-10T18:04:33.879Z,35.78
2023-05-10T18:07:42.696Z,36.28
2023-05-10T18:10:52.404Z,36.38
2023-05-10T18:14:10.241Z,36.34
2023-05-10T18:17:20.592Z,37.24
2023-05-10T18:20:29.262Z,36.96
2023-05-10T18:23:37.091Z,37.45
2023-05-10T18:26:44.216Z,37.16
2023-05-10T18:29:54.430Z,37.18
2023-05-10T18:33:00.918Z,37.53
2023-05-10T18:36:16.149Z,37.59
2023-05-10T18:39:23.678Z,37.91
2023-05-10T18:42:40.102Z,38.21
2023-05-10T18:45:48.877Z,38.41
2023-05-10T18:48:57.628Z,38.59
2023-05-10T18:52:04.815Z,39.27
2023-05-10T18:55:17.266Z,39.43
2023-05-10T18:58:24.055Z,39.63
2023-05-10T19:01:34.010Z,39.65
2023-05-10T19:04:41.141Z,40.23
2023-05-10T19:07:48.474Z,40.96
2023-05-10T19:10:54.766Z,40.32
2023-05-10T19:14:06.120Z,40.88
2023-05-10T19:17:17.134Z,40.50
2023-05-10T19:20:24.703Z,40.58
2023-05-10T19:23:32.813Z,41.00
2023-05-10T19:26:40.905Z,41.23
2023-05-10T19:29:47.101Z,41.20
2023-05-10T19:32:57.177Z,41.44
2023-05-10T19:36:03.283Z,41.54
2023-05-10T19:39:10.810Z,41.89
2023-05-10T19:42:17.991Z,41.83
2023-05-10T19:45:26.611Z,42.19
2023-05-10T19:48:35.809Z,41.69
2023-05-10T19:51:42.948Z,42.45
2023-05-10T19:54:48.934Z,42.46
2023-05-10T19:57:55.854Z,42.57
2023-05-10T20:01:01.979Z,42.60
2023-05-10T20:04:18.389Z,42.82
2023-05-10T20:07:25.923Z,42.91
2023-05-10T20:10:32.752Z,43.06
2023-05-10T20:13:38.756Z,43.11
2023-05-10T20:16:46.340Z,43.10
2023-05-10T20:19:56.996Z,43.01
2023-05-10T20:23:08.417Z,43.31
2023-05-10T20:26:26.014Z,43.75
2023-05-10T20:29:32.835Z,43.72
2023-05-10T20:32:39.022Z,43.55
2023-05-10T20:35:50.651Z,43.46
2023-05-10T20:39:02.312Z,43.92
2023-05-10T20:42:09.596Z,44.29
2023-05-10T20:45:15.885Z,43.67
2023-05-10T20:48:28.185Z,43.61
2023-05-10T20:51:39.916Z,43.67
2023-05-10T20:54:46.886Z,44.12
2023-05-10T20:57:53.213Z,44.38
2023-05-10T21:01:00.154Z,44.54
2023-05-10T21:04:07.198Z,44.58
2023-05-10T21:07:16.495Z,44.43
2023-05-10T21:10:23.120Z,44.67
2023-05-10T21:13:29.968Z,44.33
2023-05-10T21:16:36.085Z,44.62
2023-05-10T21:19:43.086Z,44.95
2023-05-10T21:22:51.764Z,44.94
2023-05-10T21:25:59.423Z,44.93
2023-05-10T21:29:05.520Z,44.82
2023-05-10T21:32:12.660Z,45.31
2023-05-10T21:35:18.710Z,45.43
2023-05-10T21:38:28.224Z,45.33
2023-05-10T21:41:34.452Z,45.23
2023-05-10T21:44:41.821Z,45.46
2023-05-10T21:47:48.156Z,45.60
2023-05-10T21:50:55.112Z,46.07
2023-05-10T21:54:03.795Z,46.24
2023-05-10T21:57:10.706Z,46.65
2023-05-10T22:00:24.826Z,46.22
2023-05-10T22:03:31.970Z,46.01
2023-05-10T22:06:38.007Z,46.16
2023-05-10T22:09:47.616Z,46.28
2023-05-10T22:12:53.801Z,46.60
2023-05-10T22:16:00.951Z,47.31
2023-05-10T22:19:10.085Z,46.94
2023-05-10T22:22:17.126Z,47.34
2023-05-10T22:25:25.927Z,48.48
2023-05-10T22:28:32.808Z,48.74
2023-05-10T22:31:39.302Z,48.28
2023-05-10T22:34:46.161Z,48.95
2023-05-10T22:37:52.041Z,50.02
2023-05-10T22:41:01.702Z,50.68
2023-05-10T22:44:08.607Z,50.27
2023-05-10T22:47:16.679Z,50.35
2023-05-10T22:50:25.917Z,50.81
2023-05-10T22:53:32.778Z,51.07
2023-05-10T22:56:41.496Z,51.62
2023-05-10T22:59:48.482Z,51.46
2023-05-10T23:02:54.879Z,51.98
2023-05-10T23:06:01.954Z,51.93
2023-05-10T23:09:08.204Z,51.49
2023-05-10T23:12:19.241Z,52.23
2023-05-10T23:15:25.181Z,52.22
2023-05-10T23:18:32.128Z,52.45
2023-05-10T23:21:38.274Z,51.81
2023-05-10T23:24:45.163Z,50.91
2023-05-10T23:27:53.781Z,50.85
2023-05-10T23:31:01.906Z,50.64
2023-05-10T23:34:08.065Z,50.52
2023-05-10T23:37:16.382Z,50.00
2023-05-10T23:40:22.404Z,50.35
2023-05-10T23:43:31.932Z,50.79
2023-05-10T23:46:37.960Z,50.99
2023-05-10T23:49:45.084Z,51.06
2023-05-10T23:52:51.213Z,51.02
2023-05-10T23:55:57.968Z,51.01
2023-05-10T23:59:06.581Z,51.12
